Time;durP1;ratioP1;P1;durP2;ratioP2;P2;SDS_P1;SDS_P2;PMS_P1;PMS_P2;Temp;Humidity;BMP_temperature;BMP_pressure;BME280_temperature;BME280_humidity;BME280_pressure;Samples;Min_cycle;Max_cycle;Signal;HPM_P1;HPM_P2
2021/12/15 00:01:04;;;;;;;32.13;24.03;;;6.50;99.90;;;;;;4959430;28;20219;-85
2021/12/15 00:03:30;;;;;;;33.93;22.40;;;6.50;99.90;;;;;;4959782;28;20198;-85
2021/12/15 00:05:57;;;;;;;33.03;23.20;;;6.50;99.90;;;;;;4955018;28;20220;-85
2021/12/15 00:08:23;;;;;;;31.43;20.80;;;6.50;99.90;;;;;;4950773;28;20192;-85
2021/12/15 00:10:49;;;;;;;30.20;21.10;;;6.60;99.90;;;;;;4947221;28;20238;-85
2021/12/15 00:13:17;;;;;;;31.63;21.37;;;6.50;99.90;;;;;;4959952;28;20644;-85
2021/12/15 00:15:46;;;;;;;35.03;23.27;;;6.60;99.90;;;;;;4974020;28;20713;-85
2021/12/15 00:18:12;;;;;;;36.20;23.00;;;6.70;99.90;;;;;;4949071;28;20192;-85
2021/12/15 00:20:39;;;;;;;33.57;22.77;;;6.70;99.90;;;;;;4945406;28;20191;-85
2021/12/15 00:23:05;;;;;;;32.13;22.50;;;6.70;99.90;;;;;;4949263;28;20211;-85
2021/12/15 00:25:36;;;;;;;39.17;24.70;;;6.60;99.90;;;;;;4942783;28;20691;-85
2021/12/15 00:28:02;;;;;;;36.50;25.93;;;6.50;99.90;;;;;;4971999;28;20276;-85
2021/12/15 00:30:28;;;;;;;37.27;23.37;;;6.50;99.90;;;;;;4944116;28;20205;-85
2021/12/15 00:32:54;;;;;;;35.17;23.13;;;6.60;99.90;;;;;;4949795;28;20192;-85
2021/12/15 00:35:21;;;;;;;34.23;21.63;;;6.60;99.90;;;;;;4946159;28;20215;-85
2021/12/15 00:37:48;;;;;;;36.20;23.63;;;6.70;99.90;;;;;;4941826;29;20196;-85
2021/12/15 00:40:19;;;;;;;32.80;23.50;;;6.80;99.90;;;;;;4944354;29;20194;-85
2021/12/15 00:42:45;;;;;;;32.07;21.27;;;6.80;99.90;;;;;;4952020;28;20192;-85
2021/12/15 00:45:12;;;;;;;36.00;24.47;;;6.80;99.90;;;;;;4938530;28;20208;-85
2021/12/15 00:47:38;;;;;;;38.93;25.07;;;6.70;99.90;;;;;;4948673;28;20207;-85
2021/12/15 00:50:08;;;;;;;39.73;26.27;;;6.60;99.90;;;;;;4948078;28;20200;-85
2021/12/15 00:52:39;;;;;;;34.20;23.63;;;6.40;99.90;;;;;;4941121;28;20196;-85
2021/12/15 00:55:15;;;;;;;36.73;24.53;;;6.50;99.90;;;;;;5021709;28;20212;-85
2021/12/15 00:57:41;;;;;;;32.53;22.70;;;6.50;99.90;;;;;;4951052;28;20196;-85
2021/12/15 01:00:13;;;;;;;34.80;22.33;;;6.60;99.90;;;;;;4940673;28;20226;-85
2021/12/15 01:02:40;;;;;;;34.13;23.07;;;6.60;99.90;;;;;;4946357;28;20263;-85
2021/12/15 01:05:07;;;;;;;37.60;25.67;;;6.70;99.90;;;;;;4940008;29;20228;-85
2021/12/15 01:07:34;;;;;;;36.77;24.00;;;6.70;99.90;;;;;;4955109;28;20224;-85
2021/12/15 01:10:00;;;;;;;35.87;24.47;;;6.70;99.90;;;;;;4990520;28;20208;-85
2021/12/15 01:20:49;;;;;;;30.93;20.97;;;6.70;99.90;;;;;;4962023;28;20179;-86
2021/12/15 01:23:19;;;;;;;30.93;21.80;;;6.80;99.90;;;;;;5000017;28;20203;-85
2021/12/15 01:25:51;;;;;;;34.63;22.87;;;6.80;99.90;;;;;;4943588;29;20228;-86
2021/12/15 01:28:17;;;;;;;33.87;22.57;;;6.80;99.90;;;;;;4963885;28;20328;-85
2021/12/15 01:30:46;;;;;;;30.47;20.53;;;6.80;99.90;;;;;;4956129;28;20216;-86
2021/12/15 01:33:13;;;;;;;30.93;21.13;;;6.70;99.90;;;;;;4948889;28;20251;-85
2021/12/15 01:35:41;;;;;;;31.63;21.70;;;6.80;99.90;;;;;;4964346;28;20219;-85
2021/12/15 01:38:07;;;;;;;29.00;21.10;;;6.80;99.90;;;;;;4942530;28;20195;-85
2021/12/15 01:40:40;;;;;;;33.77;22.27;;;6.80;99.90;;;;;;4940140;28;20248;-85
2021/12/15 01:43:14;;;;;;;33.90;23.23;;;6.80;99.90;;;;;;4936942;28;20185;-85
2021/12/15 01:48:25;;;;;;;35.13;22.73;;;6.90;99.90;;;;;;4956513;28;20319;-85
2021/12/15 01:50:51;;;;;;;35.33;24.33;;;6.80;99.90;;;;;;4959739;28;20809;-85
2021/12/15 01:53:17;;;;;;;30.97;23.03;;;6.60;99.90;;;;;;4949692;28;20192;-85
2021/12/15 01:55:43;;;;;;;34.53;22.20;;;6.60;99.90;;;;;;4942706;28;20763;-85
2021/12/15 01:58:09;;;;;;;31.60;20.60;;;6.60;99.90;;;;;;4939369;28;20547;-85
2021/12/15 02:00:52;;;;;;;31.43;21.30;;;6.70;99.90;;;;;;4947888;28;20208;-85
2021/12/15 02:03:18;;;;;;;33.37;22.20;;;6.60;99.90;;;;;;4944637;28;20192;-85
2021/12/15 02:05:44;;;;;;;29.70;21.83;;;6.60;99.90;;;;;;4942928;29;20232;-85
2021/12/15 02:08:12;;;;;;;32.43;21.30;;;6.50;99.90;;;;;;4961850;28;20197;-85
2021/12/15 02:10:41;;;;;;;28.73;21.60;;;6.50;99.90;;;;;;4931998;28;20212;-85
2021/12/15 02:13:10;;;;;;;30.07;20.97;;;6.50;99.90;;;;;;5014624;28;20201;-85
2021/12/15 02:15:41;;;;;;;29.10;19.57;;;6.50;99.90;;;;;;4959468;28;20188;-85
2021/12/15 02:18:11;;;;;;;31.73;21.70;;;6.50;99.90;;;;;;4946586;28;20196;-85
2021/12/15 02:20:44;;;;;;;32.30;21.43;;;6.60;99.90;;;;;;4958954;28;20219;-85
2021/12/15 02:23:13;;;;;;;33.20;21.83;;;6.70;99.90;;;;;;4933134;28;20210;-85
2021/12/15 02:25:39;;;;;;;31.67;19.90;;;6.80;99.90;;;;;;4947396;29;20232;-84
2021/12/15 02:28:07;;;;;;;34.73;20.97;;;6.70;99.90;;;;;;4977278;28;20224;-85
2021/12/15 02:38:36;;;;;;;27.20;20.30;;;6.70;99.90;;;;;;4957722;28;20296;-85
2021/12/15 02:41:19;;;;;;;27.70;19.50;;;6.60;99.90;;;;;;4973732;28;20214;-85
2021/12/15 02:43:46;;;;;;;28.07;19.63;;;6.60;99.90;;;;;;4922410;28;20212;-85
2021/12/15 02:46:11;;;;;;;29.57;20.73;;;6.70;99.90;;;;;;4946154;28;20225;-85
2021/12/15 02:48:37;;;;;;;27.90;19.43;;;6.70;99.90;;;;;;4942639;28;20291;-85
2021/12/15 02:51:03;;;;;;;28.27;19.70;;;6.70;99.90;;;;;;4948644;28;20235;-85
2021/12/15 02:53:29;;;;;;;28.13;20.27;;;6.70;99.90;;;;;;4949858;28;20245;-85
2021/12/15 02:55:55;;;;;;;25.63;18.90;;;6.70;99.90;;;;;;4947577;28;20307;-85
2021/12/15 02:58:21;;;;;;;28.63;19.40;;;6.70;99.90;;;;;;4942521;28;20227;-85
2021/12/15 03:00:58;;;;;;;27.37;19.77;;;6.80;99.90;;;;;;4939027;28;20200;-85
2021/12/15 03:06:16;;;;;;;32.90;21.40;;;6.80;99.90;;;;;;4942963;28;20304;-85
2021/12/15 03:08:56;;;;;;;28.67;21.13;;;6.70;99.90;;;;;;4941802;28;20219;-85
2021/12/15 03:16:57;;;;;;;30.03;21.93;;;6.60;99.90;;;;;;4948502;28;20199;-85
2021/12/15 03:19:25;;;;;;;32.03;22.50;;;6.60;99.90;;;;;;4942480;28;20200;-85
2021/12/15 03:21:51;;;;;;;30.30;22.17;;;6.70;99.90;;;;;;4927487;28;20218;-85
2021/12/15 03:24:20;;;;;;;31.23;22.87;;;6.80;99.90;;;;;;4949822;28;20207;-85
2021/12/15 03:26:55;;;;;;;30.93;22.00;;;6.70;99.90;;;;;;4911940;28;20315;-85
2021/12/15 03:37:47;;;;;;;28.87;21.53;;;6.60;99.90;;;;;;4942178;28;20369;-85
2021/12/15 03:40:21;;;;;;;29.47;20.60;;;6.70;99.90;;;;;;4938603;28;20185;-85
2021/12/15 03:42:56;;;;;;;32.53;23.00;;;6.70;99.90;;;;;;4928590;28;20196;-85
2021/12/15 03:45:36;;;;;;;31.93;22.80;;;6.60;99.90;;;;;;4938596;28;20265;-85
2021/12/15 03:48:06;;;;;;;39.30;25.90;;;6.40;99.90;;;;;;4938044;28;20188;-84
2021/12/15 03:50:32;;;;;;;34.87;23.27;;;6.20;99.90;;;;;;4948835;28;20188;-85
2021/12/15 03:52:59;;;;;;;30.57;23.87;;;6.10;99.90;;;;;;4939569;28;20199;-86
2021/12/15 03:55:30;;;;;;;35.17;23.80;;;6.10;99.90;;;;;;4958032;28;20207;-85
2021/12/15 03:57:58;;;;;;;35.97;23.67;;;6.10;99.90;;;;;;4942034;28;20272;-84
2021/12/15 04:00:27;;;;;;;30.13;22.17;;;6.00;99.90;;;;;;5002659;28;20200;-84
2021/12/15 04:02:53;;;;;;;36.20;23.77;;;6.00;99.90;;;;;;4951497;28;20192;-85
2021/12/15 04:05:20;;;;;;;32.13;22.77;;;6.20;99.90;;;;;;4959310;28;20283;-85
2021/12/15 04:07:47;;;;;;;29.53;23.70;;;6.30;99.90;;;;;;4950056;28;20201;-85
2021/12/15 04:10:18;;;;;;;29.27;21.53;;;6.40;99.90;;;;;;4940504;28;20220;-84
2021/12/15 04:12:44;;;;;;;29.27;22.90;;;6.50;99.90;;;;;;4938105;28;20204;-84
2021/12/15 04:17:50;;;;;;;28.37;21.37;;;6.50;99.90;;;;;;4936418;29;20255;-84
2021/12/15 04:20:19;;;;;;;29.77;21.40;;;6.50;99.90;;;;;;4945332;28;20606;-84
2021/12/15 04:22:45;;;;;;;31.63;23.07;;;6.50;99.90;;;;;;4943084;28;20203;-84
2021/12/15 04:25:16;;;;;;;32.40;23.87;;;6.60;99.90;;;;;;4941211;28;20323;-84
2021/12/15 04:27:52;;;;;;;35.47;23.83;;;6.60;99.90;;;;;;4939925;28;20208;-84
2021/12/15 04:30:18;;;;;;;29.47;22.07;;;6.60;99.90;;;;;;4948095;28;20259;-85
2021/12/15 04:32:48;;;;;;;34.27;23.83;;;6.50;99.90;;;;;;4945083;28;20702;-84
2021/12/15 04:35:15;;;;;;;28.03;22.23;;;6.50;99.90;;;;;;4950813;29;20196;-85
2021/12/15 04:37:42;;;;;;;33.90;23.80;;;6.40;99.90;;;;;;4946886;28;20192;-84
2021/12/15 04:40:10;;;;;;;31.07;22.37;;;6.40;99.90;;;;;;4944416;28;20204;-84
2021/12/15 04:42:38;;;;;;;32.87;22.53;;;6.50;99.90;;;;;;4941101;29;20187;-84
2021/12/15 04:45:06;;;;;;;26.80;20.43;;;6.50;99.90;;;;;;4955285;28;20307;-84
2021/12/15 04:47:32;;;;;;;32.40;23.07;;;6.50;99.90;;;;;;4945666;28;20303;-84
2021/12/15 04:49:58;;;;;;;31.90;21.77;;;6.60;99.90;;;;;;4939719;28;20192;-84
2021/12/15 04:52:32;;;;;;;31.80;21.93;;;6.70;99.90;;;;;;4943478;28;20205;-84
2021/12/15 04:54:59;;;;;;;34.17;22.80;;;6.60;99.90;;;;;;4941078;28;20223;-84
2021/12/15 04:57:26;;;;;;;33.93;23.00;;;6.60;99.90;;;;;;4937871;28;20360;-84
2021/12/15 04:59:53;;;;;;;34.07;23.10;;;6.60;99.90;;;;;;4977780;28;20205;-84
2021/12/15 05:02:20;;;;;;;31.37;20.87;;;6.60;99.90;;;;;;4947432;28;20247;-84
2021/12/15 05:04:47;;;;;;;30.60;22.70;;;6.60;99.90;;;;;;4939542;28;20243;-84
2021/12/15 05:07:15;;;;;;;32.57;22.07;;;6.60;99.90;;;;;;4940224;28;20305;-84
2021/12/15 05:09:41;;;;;;;31.90;21.13;;;6.70;99.90;;;;;;4961090;28;20195;-84
2021/12/15 05:12:08;;;;;;;29.70;21.03;;;6.70;99.90;;;;;;4940412;28;20188;-85
2021/12/15 05:14:34;;;;;;;33.73;24.33;;;6.60;99.90;;;;;;4941338;28;20275;-84
2021/12/15 05:17:00;;;;;;;31.80;22.00;;;6.60;99.90;;;;;;4940088;28;20223;-84
2021/12/15 05:19:27;;;;;;;30.70;20.83;;;6.60;99.90;;;;;;4945822;28;20192;-84
2021/12/15 05:21:56;;;;;;;33.00;21.80;;;6.60;99.90;;;;;;4940014;28;20201;-85
2021/12/15 05:26:53;;;;;;;33.57;23.73;;;6.50;99.90;;;;;;4942174;28;20228;-84
2021/12/15 05:29:19;;;;;;;30.30;22.53;;;6.50;99.90;;;;;;4946555;28;20197;-84
2021/12/15 05:31:45;;;;;;;37.40;24.40;;;6.40;99.90;;;;;;4942240;29;20199;-85
2021/12/15 05:34:10;;;;;;;31.17;22.07;;;6.40;99.90;;;;;;4920524;28;20659;-84
2021/12/15 05:36:36;;;;;;;28.87;20.00;;;6.40;99.90;;;;;;4930359;28;20271;-84
2021/12/15 05:39:06;;;;;;;34.60;22.67;;;6.40;99.90;;;;;;4937696;28;20943;-84
2021/12/15 05:41:35;;;;;;;33.67;21.53;;;6.50;99.90;;;;;;4934497;28;20602;-84
2021/12/15 05:44:05;;;;;;;35.23;22.53;;;6.50;99.90;;;;;;4939757;28;20810;-84
2021/12/15 05:46:33;;;;;;;55.13;36.80;;;6.50;99.90;;;;;;4931824;28;20279;-84
2021/12/15 05:48:59;;;;;;;42.73;26.80;;;6.50;99.90;;;;;;4940646;28;20208;-84
2021/12/15 05:51:24;;;;;;;42.20;26.43;;;6.60;99.90;;;;;;4923223;28;20219;-84
2021/12/15 05:53:50;;;;;;;41.17;24.47;;;6.50;99.90;;;;;;4937485;28;20192;-85
2021/12/15 05:56:18;;;;;;;49.13;25.10;;;6.50;99.90;;;;;;4937136;28;20208;-85
2021/12/15 05:58:44;;;;;;;44.70;25.67;;;6.30;99.90;;;;;;4943194;28;20259;-84
2021/12/15 06:01:10;;;;;;;44.37;25.73;;;6.10;99.90;;;;;;4940082;28;20220;-84
2021/12/15 06:03:36;;;;;;;51.13;26.97;;;6.10;99.90;;;;;;4947468;28;20262;-84
2021/12/15 06:06:02;;;;;;;51.00;26.93;;;6.00;99.90;;;;;;4936317;28;20769;-84
2021/12/15 06:08:28;;;;;;;48.17;26.97;;;5.90;99.90;;;;;;4940003;28;20223;-84
2021/12/15 06:10:53;;;;;;;46.33;25.00;;;5.80;99.90;;;;;;4947592;28;20230;-84
2021/12/15 06:13:22;;;;;;;50.90;25.30;;;5.90;99.90;;;;;;4944630;28;20362;-85
2021/12/15 06:15:49;;;;;;;49.33;25.73;;;6.10;99.90;;;;;;4939643;28;20221;-84
2021/12/15 06:18:17;;;;;;;47.70;25.07;;;6.10;99.90;;;;;;4940842;28;20201;-84
2021/12/15 06:20:44;;;;;;;61.30;27.33;;;6.10;99.90;;;;;;4939235;29;20260;-84
2021/12/15 06:23:17;;;;;;;55.97;26.07;;;6.00;99.90;;;;;;4940133;28;20570;-85
2021/12/15 06:25:43;;;;;;;62.23;26.87;;;5.90;99.90;;;;;;4946352;28;20401;-84
2021/12/15 06:28:10;;;;;;;69.90;28.53;;;5.90;99.90;;;;;;4953945;28;20195;-85
2021/12/15 06:30:37;;;;;;;55.63;29.03;;;5.80;99.90;;;;;;4941473;28;20204;-84
2021/12/15 06:33:04;;;;;;;79.27;29.00;;;5.90;99.90;;;;;;4947574;28;20207;-84
2021/12/15 06:35:31;;;;;;;60.67;29.33;;;5.90;99.90;;;;;;4940193;28;20212;-84
2021/12/15 06:37:57;;;;;;;55.60;26.47;;;5.80;99.90;;;;;;4952324;28;20219;-85
2021/12/15 06:40:23;;;;;;;47.97;25.37;;;5.80;99.90;;;;;;4955500;28;20204;-84
2021/12/15 06:42:49;;;;;;;62.20;29.10;;;6.00;99.90;;;;;;4935470;28;20659;-84
2021/12/15 06:45:19;;;;;;;51.50;26.67;;;6.00;99.90;;;;;;4943302;28;20272;-86
2021/12/15 06:58:34;;;;;;;48.53;26.53;;;6.20;99.90;;;;;;4937491;29;20247;-84
2021/12/15 07:01:02;;;;;;;51.50;27.23;;;6.20;99.90;;;;;;4942995;28;20660;-84
2021/12/15 07:03:28;;;;;;;44.60;24.37;;;6.30;99.90;;;;;;4940022;28;20223;-84
2021/12/15 07:05:56;;;;;;;55.93;29.40;;;6.30;99.90;;;;;;4942345;29;20212;-84
2021/12/15 07:08:26;;;;;;;51.20;26.43;;;6.30;99.90;;;;;;4940876;28;20188;-85
2021/12/15 07:10:53;;;;;;;48.03;24.50;;;6.40;99.90;;;;;;4941648;28;20238;-85
2021/12/15 07:13:19;;;;;;;53.23;28.03;;;6.40;99.90;;;;;;4942017;28;20185;-87
2021/12/15 07:15:46;;;;;;;56.97;28.40;;;6.50;99.90;;;;;;4946858;28;20216;-84
2021/12/15 07:18:25;;;;;;;57.43;28.60;;;6.40;99.90;;;;;;4935519;28;20690;-85
2021/12/15 07:20:51;;;;;;;53.87;29.03;;;6.40;99.90;;;;;;4949183;28;20210;-84
2021/12/15 07:23:21;;;;;;;60.60;27.93;;;6.50;99.90;;;;;;4942072;29;20192;-84
2021/12/15 07:25:50;;;;;;;53.13;27.93;;;6.50;99.90;;;;;;4992900;28;20226;-85
2021/12/15 07:28:19;;;;;;;58.23;30.20;;;6.50;99.90;;;;;;5021119;28;20309;-85
2021/12/15 07:30:46;;;;;;;48.83;25.37;;;6.50;99.90;;;;;;5006502;28;20213;-84
2021/12/15 07:33:12;;;;;;;54.83;29.00;;;6.50;99.90;;;;;;5022825;28;20196;-84
2021/12/15 07:35:39;;;;;;;55.73;26.50;;;6.60;99.90;;;;;;5020831;28;20214;-84
2021/12/15 07:38:07;;;;;;;54.50;27.80;;;6.60;99.90;;;;;;5018133;28;20268;-85
2021/12/15 07:40:33;;;;;;;55.73;28.77;;;6.60;99.90;;;;;;5017338;28;20208;-85
2021/12/15 07:43:08;;;;;;;59.10;27.97;;;6.70;99.90;;;;;;4999328;28;20198;-85
2021/12/15 07:45:36;;;;;;;49.53;27.13;;;6.50;99.90;;;;;;5019915;28;20667;-84
2021/12/15 07:48:03;;;;;;;79.23;66.87;;;6.50;99.90;;;;;;5018820;28;20186;-85
2021/12/15 07:50:31;;;;;;;54.47;32.23;;;6.50;99.90;;;;;;5019260;28;20772;-85
2021/12/15 07:52:57;;;;;;;60.10;30.47;;;6.50;99.90;;;;;;5018629;28;20273;-84
2021/12/15 07:55:25;;;;;;;61.00;29.93;;;6.60;99.90;;;;;;5019330;28;20274;-84
2021/12/15 07:57:52;;;;;;;70.00;31.77;;;6.60;99.90;;;;;;5020018;28;20186;-84
2021/12/15 08:00:18;;;;;;;57.13;29.73;;;6.50;99.90;;;;;;5019955;28;20306;-84
2021/12/15 08:02:45;;;;;;;60.23;30.53;;;6.50;99.90;;;;;;5019049;28;20212;-84
2021/12/15 08:05:11;;;;;;;56.73;28.97;;;6.50;99.90;;;;;;5003169;28;20228;-84
2021/12/15 08:07:36;;;;;;;59.87;28.90;;;6.50;99.90;;;;;;5020765;28;20237;-84
2021/12/15 08:10:06;;;;;;;56.80;29.77;;;6.50;99.90;;;;;;5018666;28;20206;-84
2021/12/15 08:12:32;;;;;;;54.83;29.33;;;6.60;99.90;;;;;;5019140;28;20265;-84
2021/12/15 08:14:58;;;;;;;51.43;27.87;;;6.60;99.90;;;;;;5021180;28;20674;-84
2021/12/15 08:17:24;;;;;;;58.77;28.83;;;6.60;99.90;;;;;;5020297;28;20210;-84
2021/12/15 08:19:50;;;;;;;50.40;27.10;;;6.60;99.90;;;;;;5019985;28;20207;-84
2021/12/15 08:22:16;;;;;;;50.77;28.00;;;6.60;99.90;;;;;;5002393;28;20198;-84
2021/12/15 08:24:42;;;;;;;57.80;29.53;;;6.70;99.90;;;;;;4999266;28;20215;-85
2021/12/15 08:27:08;;;;;;;67.73;31.73;;;6.70;99.90;;;;;;4968477;28;20230;-84
2021/12/15 08:29:34;;;;;;;58.77;29.47;;;6.80;99.90;;;;;;4940651;28;20190;-85
2021/12/15 08:32:00;;;;;;;54.27;29.07;;;6.70;99.90;;;;;;4945738;28;20275;-84
2021/12/15 08:34:26;;;;;;;74.17;34.63;;;6.60;99.90;;;;;;4938237;28;20255;-84
2021/12/15 08:36:54;;;;;;;72.20;33.53;;;6.60;99.90;;;;;;4944673;28;20204;-84
2021/12/15 08:39:20;;;;;;;76.63;33.27;;;6.60;99.90;;;;;;4977141;28;20197;-84
2021/12/15 08:41:47;;;;;;;66.20;31.33;;;6.60;99.90;;;;;;4956337;28;20753;-84
2021/12/15 08:44:12;;;;;;;70.57;32.60;;;6.60;99.90;;;;;;4941461;29;20196;-84
2021/12/15 08:46:41;;;;;;;64.77;31.87;;;6.70;99.90;;;;;;4951848;28;20315;-84
2021/12/15 08:49:12;;;;;;;63.43;30.33;;;6.70;99.90;;;;;;4949675;28;20196;-84
2021/12/15 08:51:38;;;;;;;67.67;30.77;;;6.60;99.90;;;;;;4932716;28;20598;-84
2021/12/15 08:54:08;;;;;;;60.53;30.13;;;6.60;99.90;;;;;;4960455;28;20189;-84
2021/12/15 08:56:36;;;;;;;59.30;28.93;;;6.70;99.90;;;;;;4932134;28;20216;-86
2021/12/15 08:59:04;;;;;;;51.60;28.57;;;6.80;99.90;;;;;;4942190;28;20315;-85
2021/12/15 09:01:30;;;;;;;51.20;27.53;;;6.80;99.90;;;;;;4946371;28;20188;-86
2021/12/15 09:03:56;;;;;;;45.83;26.73;;;6.90;99.90;;;;;;4945730;28;20220;-87
2021/12/15 09:06:22;;;;;;;46.63;25.70;;;6.90;99.90;;;;;;4954087;28;20220;-86
2021/12/15 09:08:48;;;;;;;48.67;26.17;;;7.00;99.90;;;;;;4948596;28;20180;-87
2021/12/15 09:11:17;;;;;;;43.37;24.83;;;6.90;99.90;;;;;;4957536;28;20181;-86
2021/12/15 09:13:44;;;;;;;41.87;25.83;;;6.90;99.90;;;;;;4929138;28;20215;-84
2021/12/15 09:16:12;;;;;;;40.20;25.03;;;6.90;99.90;;;;;;4950907;28;20219;-84
2021/12/15 09:18:40;;;;;;;37.00;24.90;;;6.90;99.90;;;;;;4945952;28;20216;-83
2021/12/15 09:21:07;;;;;;;38.50;23.13;;;6.90;99.90;;;;;;4946853;28;20214;-81
2021/12/15 09:23:33;;;;;;;39.60;24.20;;;7.10;99.90;;;;;;4955529;28;20188;-83
2021/12/15 09:25:59;;;;;;;34.23;23.43;;;7.00;99.90;;;;;;5004452;28;20243;-85
2021/12/15 09:28:26;;;;;;;40.17;24.30;;;7.10;99.90;;;;;;4958471;28;20196;-81
2021/12/15 09:30:54;;;;;;;33.60;23.00;;;7.00;99.90;;;;;;4957916;28;20235;-80
2021/12/15 09:33:24;;;;;;;34.27;22.97;;;7.00;99.90;;;;;;4953489;28;20196;-84
2021/12/15 09:35:51;;;;;;;35.80;21.57;;;7.00;99.90;;;;;;4953762;28;20342;-84
2021/12/15 09:38:18;;;;;;;26.70;20.70;;;7.20;99.90;;;;;;4938812;28;20561;-84
2021/12/15 09:40:45;;;;;;;29.70;21.07;;;7.20;99.90;;;;;;4939145;28;20271;-84
2021/12/15 09:43:11;;;;;;;30.77;21.07;;;7.20;99.90;;;;;;4937609;28;20192;-84
2021/12/15 10:04:56;;;;;;;29.70;19.70;;;7.50;99.90;;;;;;4931264;29;20215;-85
2021/12/15 10:10:40;;;;;;;28.77;21.20;;;7.40;99.90;;;;;;4936127;28;20243;-85
2021/12/15 10:21:27;;;;;;;26.93;20.00;;;7.60;99.90;;;;;;4936970;28;20205;-84
2021/12/15 10:23:54;;;;;;;26.63;20.87;;;7.60;99.90;;;;;;4940805;28;20211;-85
2021/12/15 10:26:23;;;;;;;32.53;20.33;;;7.70;99.90;;;;;;4940078;28;20638;-84
2021/12/15 10:28:52;;;;;;;26.50;20.97;;;7.70;99.90;;;;;;5002199;28;20197;-85
2021/12/15 10:31:23;;;;;;;26.27;19.63;;;7.70;99.90;;;;;;4937693;28;20304;-85
2021/12/15 10:33:59;;;;;;;26.37;19.47;;;7.70;99.90;;;;;;4939983;28;20651;-85
2021/12/15 10:36:35;;;;;;;27.93;22.13;;;7.90;99.90;;;;;;4944641;28;20216;-84
2021/12/15 10:39:04;;;;;;;27.07;22.90;;;7.90;99.90;;;;;;4936053;29;20188;-85
2021/12/15 10:41:37;;;;;;;29.50;23.40;;;7.90;99.90;;;;;;4944640;28;20235;-85
2021/12/15 10:44:09;;;;;;;22.77;18.83;;;8.00;99.90;;;;;;4936575;28;20200;-85
2021/12/15 10:46:50;;;;;;;19.20;16.90;;;8.10;99.90;;;;;;4943773;28;20228;-85
2021/12/15 10:49:20;;;;;;;24.80;18.03;;;8.00;99.90;;;;;;4938297;28;20231;-85
2021/12/15 10:51:50;;;;;;;21.40;15.60;;;8.00;99.90;;;;;;4936491;28;20197;-85
2021/12/15 10:54:23;;;;;;;20.00;16.13;;;8.00;99.90;;;;;;4936164;28;20200;-86
2021/12/15 10:56:59;;;;;;;18.00;14.87;;;8.10;99.90;;;;;;4937425;28;20232;-85
2021/12/15 10:59:29;;;;;;;15.67;12.80;;;8.20;99.50;;;;;;4941415;28;20206;-85
2021/12/15 11:02:12;;;;;;;12.70;11.40;;;8.30;97.50;;;;;;4944331;28;20220;-85
2021/12/15 11:04:47;;;;;;;13.50;10.63;;;8.30;97.70;;;;;;4931430;28;20270;-84
2021/12/15 11:07:22;;;;;;;10.20;8.20;;;8.60;94.40;;;;;;4934611;29;20257;-85
2021/12/15 11:10:13;;;;;;;11.43;9.50;;;8.70;92.10;;;;;;4933328;28;20202;-85
2021/12/15 11:12:43;;;;;;;11.77;9.60;;;8.60;94.40;;;;;;4935562;28;20200;-85
2021/12/15 11:15:30;;;;;;;8.53;7.67;;;8.40;94.90;;;;;;4938334;28;20290;-85
2021/12/15 11:18:02;;;;;;;7.33;5.27;;;8.50;92.90;;;;;;4939295;28;20656;-83
2021/12/15 11:20:30;;;;;;;5.93;5.40;;;8.50;92.20;;;;;;4945557;28;20192;-83
2021/12/15 11:23:03;;;;;;;6.03;5.27;;;8.60;92.10;;;;;;4958813;28;20227;-84
2021/12/15 11:25:49;;;;;;;6.50;5.90;;;8.60;90.70;;;;;;4956914;28;20231;-82
2021/12/15 11:28:29;;;;;;;12.47;6.90;;;8.50;91.90;;;;;;4956779;29;20195;-85
2021/12/15 11:31:11;;;;;;;7.10;6.50;;;8.60;90.40;;;;;;4937232;29;20196;-85
2021/12/15 11:33:44;;;;;;;23.93;9.07;;;8.60;90.20;;;;;;4920269;28;20230;-84
2021/12/15 11:36:25;;;;;;;8.87;7.00;;;8.50;92.20;;;;;;4934858;28;20247;-85
2021/12/15 11:39:05;;;;;;;8.00;7.30;;;8.40;92.70;;;;;;4934058;28;20228;-83
2021/12/15 11:41:37;;;;;;;9.60;8.30;;;8.50;92.80;;;;;;4947611;28;20196;-84
2021/12/15 11:44:05;;;;;;;8.80;8.00;;;8.50;91.80;;;;;;4941103;28;20216;-85
2021/12/15 11:46:44;;;;;;;8.17;7.37;;;8.60;90.80;;;;;;4933961;28;20233;-85
2021/12/15 11:49:16;;;;;;;9.87;8.07;;;8.60;90.50;;;;;;4935021;28;20204;-85
2021/12/15 11:51:53;;;;;;;9.10;8.20;;;8.50;91.70;;;;;;4933352;29;20200;-84
2021/12/15 11:54:21;;;;;;;11.90;9.70;;;8.50;92.00;;;;;;4940642;28;20211;-84
2021/12/15 11:57:01;;;;;;;10.27;9.23;;;8.50;92.50;;;;;;4937633;28;20220;-85
2021/12/15 11:59:34;;;;;;;10.13;9.10;;;8.30;92.80;;;;;;4936732;28;20265;-85
2021/12/15 12:02:30;;;;;;;10.00;9.00;;;8.40;91.90;;;;;;4959388;28;20596;-85
2021/12/15 12:05:22;;;;;;;9.30;8.47;;;8.50;92.00;;;;;;4942523;28;20267;-85
2021/12/15 12:07:54;;;;;;;9.03;7.67;;;8.60;91.70;;;;;;4957584;28;20248;-85
2021/12/15 12:10:47;;;;;;;9.70;8.70;;;8.60;91.20;;;;;;4942845;28;20206;-84
2021/12/15 12:13:25;;;;;;;11.97;7.50;;;8.60;90.60;;;;;;4936899;29;20231;-84
2021/12/15 12:15:54;;;;;;;8.37;7.30;;;8.60;91.00;;;;;;4938199;28;20247;-87
2021/12/15 12:18:24;;;;;;;9.50;8.53;;;8.50;91.50;;;;;;4958208;28;20196;-86
2021/12/15 12:20:57;;;;;;;9.57;8.57;;;8.50;91.90;;;;;;4946188;28;20196;-86
2021/12/15 12:23:25;;;;;;;9.63;8.70;;;8.40;92.30;;;;;;4947688;28;21321;-86
2021/12/15 12:25:56;;;;;;;9.87;8.90;;;8.60;91.90;;;;;;4938719;28;20223;-86
2021/12/15 12:28:30;;;;;;;10.53;9.43;;;8.40;92.50;;;;;;4935144;28;20200;-85
2021/12/15 12:31:09;;;;;;;11.03;9.93;;;8.50;92.60;;;;;;4940747;28;20203;-84
2021/12/15 12:33:35;;;;;;;8.70;7.90;;;8.60;91.20;;;;;;4941078;28;20200;-85
2021/12/15 12:36:10;;;;;;;10.07;8.47;;;8.70;90.10;;;;;;4923057;28;20216;-85
2021/12/15 12:38:39;;;;;;;8.93;8.13;;;8.60;90.50;;;;;;4945083;28;20629;-85
2021/12/15 12:41:15;;;;;;;9.10;8.10;;;8.60;90.50;;;;;;4944526;28;20188;-86
2021/12/15 12:43:48;;;;;;;8.70;7.27;;;8.50;91.00;;;;;;4938597;28;20265;-85
2021/12/15 12:46:41;;;;;;;18.20;8.37;;;8.50;90.80;;;;;;4937397;28;20225;-85
2021/12/15 13:00:18;;;;;;;10.27;7.03;;;8.60;89.80;;;;;;4948536;28;20219;-86
2021/12/15 13:02:46;;;;;;;48.13;9.73;;;8.60;90.00;;;;;;4941242;28;20199;-86
2021/12/15 13:05:31;;;;;;;6.87;6.17;;;8.50;90.00;;;;;;4996720;28;20217;-87
2021/12/15 13:08:04;;;;;;;6.70;5.83;;;8.40;90.20;;;;;;4935743;28;20440;-87
2021/12/15 13:10:48;;;;;;;6.30;5.70;;;8.30;90.90;;;;;;4940144;28;20226;-87
2021/12/15 13:13:16;;;;;;;8.40;6.97;;;8.10;91.50;;;;;;4919275;28;20208;-88
2021/12/15 13:15:50;;;;;;;7.27;6.57;;;8.10;91.60;;;;;;4932990;28;20251;-88
2021/12/15 13:18:17;;;;;;;8.83;6.90;;;8.00;92.10;;;;;;4937376;28;20215;-87
2021/12/15 13:20:58;;;;;;;6.63;6.03;;;8.20;91.90;;;;;;4935840;28;20837;-88
2021/12/15 13:23:42;;;;;;;7.07;6.23;;;8.40;90.10;;;;;;4936210;28;20215;-88
2021/12/15 13:29:12;;;;;;;6.90;6.20;;;8.40;90.20;;;;;;4943330;28;20195;-85
2021/12/15 13:31:52;;;;;;;7.07;6.40;;;8.40;90.50;;;;;;4937680;28;20204;-85
2021/12/15 13:34:47;;;;;;;7.57;6.10;;;8.40;90.50;;;;;;4937610;28;20215;-86
2021/12/15 13:40:58;;;;;;;7.47;6.37;;;8.50;89.80;;;;;;4952075;28;20226;-88
2021/12/15 13:43:45;;;;;;;6.43;5.83;;;8.50;89.60;;;;;;4953135;28;20192;-88
2021/12/15 13:46:37;;;;;;;7.57;6.73;;;8.40;89.90;;;;;;4953889;28;20244;-86
2021/12/15 13:49:28;;;;;;;7.00;6.30;;;8.30;90.40;;;;;;4947018;28;20212;-87
2021/12/15 13:51:56;;;;;;;6.60;6.10;;;8.20;91.30;;;;;;4947074;28;20192;-88
2021/12/15 13:54:37;;;;;;;8.13;6.27;;;8.20;91.50;;;;;;4937941;28;20200;-87
2021/12/15 13:57:13;;;;;;;8.17;7.37;;;8.20;91.80;;;;;;4944623;28;20216;-87
2021/12/15 13:59:46;;;;;;;7.67;6.87;;;8.20;91.20;;;;;;4945110;28;20238;-86
2021/12/15 14:02:12;;;;;;;7.03;6.37;;;8.10;91.50;;;;;;5011901;28;20209;-86
2021/12/15 14:04:54;;;;;;;6.93;6.33;;;8.20;91.10;;;;;;4945736;28;20196;-87
2021/12/15 14:07:28;;;;;;;6.33;5.43;;;8.20;91.90;;;;;;4944593;28;20216;-87
2021/12/15 14:10:24;;;;;;;6.17;5.60;;;8.30;90.50;;;;;;4946564;28;20196;-88
2021/12/15 14:12:57;;;;;;;5.20;4.70;;;8.50;89.50;;;;;;4945854;29;20213;-87
2021/12/15 14:15:37;;;;;;;5.63;5.13;;;8.40;89.80;;;;;;4927493;28;20250;-86
2021/12/15 14:18:18;;;;;;;5.40;4.90;;;8.40;89.50;;;;;;4949825;28;20208;-87
2021/12/15 14:21:14;;;;;;;5.43;4.93;;;8.40;88.80;;;;;;4944206;28;20212;-86
2021/12/15 14:23:47;;;;;;;9.37;5.67;;;8.30;90.10;;;;;;4947589;28;20193;-87
2021/12/15 14:26:20;;;;;;;7.37;5.73;;;8.20;90.80;;;;;;4941394;28;20254;-87
2021/12/15 14:28:54;;;;;;;5.50;4.97;;;8.10;90.80;;;;;;4945121;28;20212;-87
2021/12/15 14:31:41;;;;;;;6.27;5.50;;;8.30;89.80;;;;;;4942577;28;20801;-86
2021/12/15 14:34:39;;;;;;;6.33;5.30;;;8.10;90.50;;;;;;5006717;28;20215;-86
2021/12/15 14:37:11;;;;;;;6.27;5.03;;;8.10;91.40;;;;;;4947246;28;20204;-86